createdAt,value
2018-02-25T00:02:05.420Z,1.70
2018-02-25T00:04:33.016Z,1.80
2018-02-25T00:07:00.533Z,1.90
2018-02-25T00:09:28.504Z,1.27
2018-02-25T00:11:56.065Z,1.33
2018-02-25T00:14:23.589Z,1.40
2018-02-25T00:16:52.200Z,1.70
2018-02-25T00:19:19.724Z,1.83
2018-02-25T00:21:48.019Z,1.77
2018-02-25T00:24:16.007Z,1.53
2018-02-25T00:26:43.504Z,1.57
2018-02-25T00:29:11.036Z,1.90
2018-02-25T00:31:38.992Z,1.83
2018-02-25T00:34:06.501Z,1.53
2018-02-25T00:36:34.017Z,1.50
2018-02-25T00:39:01.814Z,1.83
2018-02-25T00:41:29.334Z,1.63
2018-02-25T00:43:56.840Z,1.50
2018-02-25T00:46:24.680Z,1.30
2018-02-25T00:48:52.198Z,1.47
2018-02-25T00:51:19.737Z,1.87
2018-02-25T00:53:47.556Z,1.70
2018-02-25T00:56:15.068Z,1.60
2018-02-25T00:58:42.585Z,1.53
2018-02-25T01:01:11.158Z,1.90
2018-02-25T01:03:38.672Z,1.73
2018-02-25T01:06:06.191Z,2.10
2018-02-25T01:08:33.729Z,1.90
2018-02-25T01:11:01.243Z,1.80
2018-02-25T01:13:29.827Z,1.60
2018-02-25T01:15:57.388Z,1.57
2018-02-25T01:18:24.869Z,1.50
2018-02-25T01:20:52.830Z,1.70
2018-02-25T01:23:20.339Z,1.60
2018-02-25T01:25:47.845Z,1.63
2018-02-25T01:28:15.371Z,1.50
2018-02-25T01:30:42.928Z,1.87
2018-02-25T01:33:11.508Z,1.83
2018-02-25T01:35:39.787Z,1.63
2018-02-25T01:38:07.297Z,2.00
2018-02-25T01:40:34.829Z,1.70
2018-02-25T01:43:02.405Z,1.93
2018-02-25T01:45:30.192Z,1.53
2018-02-25T01:47:57.685Z,1.63
2018-02-25T01:50:25.213Z,1.80
2018-02-25T01:52:52.723Z,1.40
2018-02-25T01:55:20.242Z,1.70
2018-02-25T01:57:48.046Z,1.80
2018-02-25T02:00:17.735Z,1.60
2018-02-25T02:02:45.239Z,1.57
2018-02-25T02:05:12.770Z,1.70
2018-02-25T02:07:40.287Z,1.90
2018-02-25T02:10:08.220Z,1.77
2018-02-25T02:12:35.736Z,1.80
2018-02-25T02:15:04.017Z,1.97
2018-02-25T02:17:31.540Z,1.70
2018-02-25T02:19:59.040Z,1.70
2018-02-25T02:22:27.581Z,1.60
2018-02-25T02:24:55.089Z,1.83
2018-02-25T02:27:22.608Z,2.20
2018-02-25T02:29:50.559Z,1.73
2018-02-25T02:32:18.815Z,1.37
2018-02-25T02:34:46.340Z,1.93
2018-02-25T02:37:13.871Z,1.37
2018-02-25T02:39:42.153Z,2.03
2018-02-25T02:42:09.949Z,1.83
2018-02-25T02:44:37.480Z,1.70
2018-02-25T02:47:05.792Z,1.50
2018-02-25T02:49:33.337Z,1.73
2018-02-25T02:52:00.849Z,1.70
2018-02-25T02:54:28.778Z,1.97
2018-02-25T02:56:56.317Z,2.23
2018-02-25T02:59:23.840Z,1.87
2018-02-25T03:01:51.364Z,1.80
2018-02-25T03:04:18.889Z,1.57
2018-02-25T03:06:46.769Z,1.67
2018-02-25T03:09:14.282Z,1.57
2018-02-25T03:11:41.781Z,1.73
2018-02-25T03:14:09.594Z,1.70
2018-02-25T03:16:37.118Z,1.77
2018-02-25T03:19:04.624Z,2.20
2018-02-25T03:21:32.139Z,1.70
2018-02-25T03:23:59.654Z,1.97
2018-02-25T03:26:28.261Z,1.60
2018-02-25T03:28:55.773Z,1.63
2018-02-25T03:31:23.853Z,1.80
2018-02-25T03:33:52.155Z,1.70
2018-02-25T03:36:20.474Z,1.80
2018-02-25T03:38:48.309Z,1.60
2018-02-25T03:41:15.825Z,1.70
2018-02-25T03:43:43.771Z,1.80
2018-02-25T03:46:11.587Z,2.00
2018-02-25T03:48:39.092Z,1.90
2018-02-25T03:51:06.618Z,2.03
2018-02-25T03:53:34.575Z,2.13
2018-02-25T03:56:02.206Z,2.00
2018-02-25T03:58:29.714Z,2.13
2018-02-25T04:00:57.497Z,2.13
2018-02-25T04:03:24.996Z,1.67
2018-02-25T04:05:52.498Z,2.20
2018-02-25T04:08:20.010Z,1.90
2018-02-25T04:10:47.505Z,1.60
2018-02-25T04:13:15.474Z,1.97
2018-02-25T04:15:42.985Z,2.27
2018-02-25T04:18:10.527Z,1.90
2018-02-25T04:20:38.056Z,1.70
2018-02-25T04:23:05.556Z,1.63
2018-02-25T04:25:33.347Z,1.90
2018-02-25T04:28:01.640Z,1.83
2018-02-25T04:30:29.897Z,2.27
2018-02-25T04:32:58.168Z,2.23
2018-02-25T04:35:26.453Z,2.17
2018-02-25T04:37:55.053Z,1.90
2018-02-25T04:40:22.557Z,1.83
2018-02-25T04:42:50.072Z,2.40
2018-02-25T04:45:17.579Z,1.70
2018-02-25T04:47:45.091Z,1.80
2018-02-25T04:50:12.947Z,1.90
2018-02-25T04:52:40.454Z,1.80
2018-02-25T04:55:07.966Z,1.93
2018-02-25T04:57:35.489Z,1.80
2018-02-25T05:00:04.954Z,2.00
2018-02-25T05:02:32.897Z,1.97
2018-02-25T05:05:00.412Z,1.90
2018-02-25T05:07:28.151Z,2.13
2018-02-25T05:09:55.861Z,2.00
2018-02-25T05:12:23.424Z,2.20
2018-02-25T05:14:50.946Z,2.07
2018-02-25T05:17:18.479Z,2.03
2018-02-25T05:19:45.986Z,2.10
2018-02-25T05:22:14.778Z,2.07
2018-02-25T05:24:42.301Z,1.87
2018-02-25T05:27:09.807Z,2.37
2018-02-25T05:29:37.620Z,2.00
2018-02-25T05:32:05.957Z,2.07
2018-02-25T05:34:33.439Z,2.27
2018-02-25T05:37:01.251Z,2.73
2018-02-25T05:39:29.515Z,2.13
2018-02-25T05:41:57.029Z,2.40
2018-02-25T05:44:24.542Z,2.07
2018-02-25T05:46:52.081Z,2.03
2018-02-25T05:49:20.094Z,2.17
2018-02-25T05:51:47.621Z,2.60
2018-02-25T05:54:15.906Z,2.10
2018-02-25T05:56:43.443Z,2.30
2018-02-25T05:59:10.954Z,2.10
2018-02-25T06:01:38.736Z,2.10
2018-02-25T06:04:06.245Z,2.17
2018-02-25T06:06:34.521Z,2.00
2018-02-25T06:09:03.116Z,1.97
2018-02-25T06:11:30.665Z,2.17
2018-02-25T06:13:58.948Z,2.00
2018-02-25T06:16:26.829Z,1.70
2018-02-25T06:18:54.448Z,1.97
2018-02-25T06:21:21.991Z,2.00
2018-02-25T06:23:49.813Z,2.10
2018-02-25T06:26:17.441Z,1.90
2018-02-25T06:28:44.976Z,1.90
2018-02-25T06:31:13.002Z,2.03
2018-02-25T06:33:40.531Z,1.93
2018-02-25T06:36:08.807Z,2.00
2018-02-25T06:38:37.424Z,2.20
2018-02-25T06:41:04.925Z,1.93
2018-02-25T06:43:32.428Z,2.00
2018-02-25T06:46:00.377Z,1.93
2018-02-25T06:48:27.892Z,1.80
2018-02-25T06:50:55.410Z,1.90
2018-02-25T06:53:23.224Z,1.93
2018-02-25T06:55:50.737Z,1.80
2018-02-25T06:58:18.257Z,1.80
2018-02-25T07:00:46.061Z,1.77
2018-02-25T07:03:13.592Z,1.93
2018-02-25T07:05:41.891Z,2.10
2018-02-25T07:08:10.479Z,2.13
2018-02-25T07:10:38.014Z,1.73
2018-02-25T07:13:06.296Z,2.07
2018-02-25T07:15:34.901Z,1.90
2018-02-25T07:18:02.411Z,2.00
2018-02-25T07:20:29.937Z,2.10
2018-02-25T07:22:57.752Z,2.03
2018-02-25T07:25:26.044Z,2.30
2018-02-25T07:27:53.576Z,2.03
2018-02-25T07:30:21.478Z,2.10
2018-02-25T07:32:49.004Z,1.93
2018-02-25T07:35:16.512Z,1.80
2018-02-25T07:37:44.366Z,2.00
2018-02-25T07:40:11.877Z,2.10
2018-02-25T07:42:39.393Z,2.27
2018-02-25T07:45:07.350Z,2.40
2018-02-25T07:47:34.861Z,2.30
2018-02-25T07:50:02.382Z,2.50
2018-02-25T07:52:30.184Z,2.10
2018-02-25T07:54:57.689Z,1.97
2018-02-25T07:57:25.203Z,2.07
2018-02-25T07:59:53.031Z,1.90
2018-02-25T08:02:20.580Z,2.10
2018-02-25T08:04:48.087Z,2.50
2018-02-25T08:07:15.907Z,2.70
2018-02-25T08:09:43.411Z,2.50
2018-02-25T08:12:10.935Z,2.90
2018-02-25T08:14:38.791Z,2.40
2018-02-25T08:17:06.291Z,3.10
2018-02-25T08:19:33.803Z,3.10
2018-02-25T08:22:01.787Z,2.40
2018-02-25T08:24:29.336Z,2.87
2018-02-25T08:26:56.890Z,2.97
2018-02-25T08:29:24.737Z,2.30
2018-02-25T08:31:52.274Z,2.63
2018-02-25T08:34:20.554Z,3.10
2018-02-25T08:36:49.200Z,2.50
2018-02-25T08:39:16.730Z,3.60
2018-02-25T08:41:44.255Z,2.80
2018-02-25T08:44:12.803Z,2.63
2018-02-25T08:46:40.308Z,2.67
2018-02-25T08:49:07.823Z,2.77
2018-02-25T08:51:35.619Z,2.43
2018-02-25T08:54:03.904Z,2.70
2018-02-25T08:56:31.438Z,2.27
2018-02-25T08:59:00.063Z,2.10
2018-02-25T09:01:27.625Z,2.33
2018-02-25T09:03:55.141Z,2.60
2018-02-25T09:06:23.096Z,2.20
2018-02-25T09:08:51.394Z,2.40
2018-02-25T09:11:19.659Z,3.30
2018-02-25T09:13:47.462Z,3.30
2018-02-25T09:16:14.950Z,2.77
2018-02-25T09:18:42.439Z,2.57
2018-02-25T09:21:10.342Z,2.40
2018-02-25T09:23:38.634Z,2.80
2018-02-25T09:26:06.152Z,3.03
2018-02-25T09:28:34.075Z,2.07
2018-02-25T09:31:01.612Z,2.40
2018-02-25T09:33:29.131Z,2.20
2018-02-25T09:35:59.907Z,2.37
2018-02-25T09:38:27.424Z,2.27
2018-02-25T09:40:55.721Z,2.67
2018-02-25T09:43:23.618Z,2.80
2018-02-25T09:45:51.126Z,1.90
2018-02-25T09:48:19.450Z,1.80
2018-02-25T09:50:47.238Z,2.53
2018-02-25T09:53:14.747Z,2.20
2018-02-25T09:55:42.295Z,2.30
2018-02-25T09:58:10.976Z,2.80
2018-02-25T10:00:38.500Z,2.40
2018-02-25T10:03:06.026Z,1.80
2018-02-25T10:05:33.865Z,2.20
2018-02-25T10:08:01.370Z,1.47
2018-02-25T10:10:29.663Z,2.53
2018-02-25T10:12:57.457Z,2.17
2018-02-25T10:15:25.009Z,1.97
2018-02-25T10:17:53.291Z,2.23
2018-02-25T10:20:21.887Z,5.43
2018-02-25T10:22:49.399Z,3.10
2018-02-25T10:25:16.909Z,2.60
2018-02-25T10:27:44.766Z,10.23
2018-02-25T10:30:12.275Z,3.20
2018-02-25T10:32:39.817Z,4.20
2018-02-25T10:35:07.635Z,1.83
2018-02-25T10:37:35.162Z,3.27
2018-02-25T10:40:02.672Z,1.83
2018-02-25T10:42:30.476Z,3.90
2018-02-25T10:44:57.987Z,2.73
2018-02-25T10:47:25.499Z,2.30
2018-02-25T10:49:53.422Z,2.50
2018-02-25T10:52:20.924Z,3.67
2018-02-25T10:54:48.431Z,1.70
2018-02-25T10:57:16.914Z,1.87
2018-02-25T10:59:44.420Z,1.80
2018-02-25T11:02:12.695Z,1.43
2018-02-25T11:04:41.335Z,2.00
2018-02-25T11:07:08.894Z,3.73
2018-02-25T11:09:37.795Z,1.60
2018-02-25T11:12:05.599Z,1.40
2018-02-25T11:14:33.115Z,1.43
2018-02-25T11:17:00.628Z,1.70
2018-02-25T11:19:28.594Z,3.50
2018-02-25T11:21:56.078Z,1.90
2018-02-25T11:24:23.621Z,1.90
2018-02-25T11:26:52.197Z,1.70
2018-02-25T11:29:19.761Z,2.33
2018-02-25T11:31:47.318Z,1.80
2018-02-25T11:34:15.318Z,1.90
2018-02-25T11:36:42.834Z,1.73
2018-02-25T11:39:10.355Z,1.70
2018-02-25T11:41:38.198Z,1.57
2018-02-25T11:44:05.753Z,1.37
2018-02-25T11:46:33.274Z,1.70
2018-02-25T11:49:01.099Z,1.30
2018-02-25T11:51:28.603Z,1.30
2018-02-25T11:53:56.153Z,1.77
2018-02-25T11:56:23.971Z,1.60
2018-02-25T11:58:51.480Z,1.70
2018-02-25T12:01:18.992Z,1.60
2018-02-25T12:03:46.906Z,1.63
2018-02-25T12:06:14.412Z,1.50
2018-02-25T12:08:42.052Z,1.40
2018-02-25T12:11:09.926Z,1.80
2018-02-25T12:13:37.428Z,2.63
2018-02-25T12:16:06.461Z,1.80
2018-02-25T12:18:35.045Z,1.80
2018-02-25T12:21:02.600Z,1.87
2018-02-25T12:23:30.112Z,1.60
2018-02-25T12:25:57.953Z,2.00
2018-02-25T12:28:25.453Z,1.50
2018-02-25T12:30:53.082Z,1.90
2018-02-25T12:33:20.920Z,1.70
2018-02-25T12:35:48.449Z,1.70
2018-02-25T12:38:15.966Z,1.60
2018-02-25T12:40:43.969Z,1.60
2018-02-25T12:43:11.573Z,1.43
2018-02-25T12:45:39.077Z,1.90
2018-02-25T12:48:07.096Z,1.77
2018-02-25T12:50:35.363Z,1.47
2018-02-25T12:53:03.630Z,1.80
2018-02-25T12:55:32.274Z,1.63
2018-02-25T12:57:59.768Z,1.97
2018-02-25T13:00:28.060Z,1.60
2018-02-25T13:02:56.699Z,1.97
2018-02-25T13:05:24.190Z,1.97
2018-02-25T13:07:52.457Z,1.83
2018-02-25T13:10:20.255Z,1.80
2018-02-25T13:12:47.781Z,1.70
2018-02-25T13:15:16.054Z,1.90
2018-02-25T13:17:43.872Z,1.63
2018-02-25T13:20:11.375Z,1.70
2018-02-25T13:22:38.980Z,2.10
2018-02-25T13:25:06.835Z,2.17
2018-02-25T13:27:34.343Z,1.83
2018-02-25T13:30:01.953Z,2.20
2018-02-25T13:32:29.925Z,1.93
2018-02-25T13:34:57.427Z,2.20
2018-02-25T13:37:25.058Z,2.20
2018-02-25T13:39:52.880Z,1.90
2018-02-25T13:42:21.164Z,1.93
2018-02-25T13:44:48.708Z,1.70
2018-02-25T13:47:17.346Z,1.97
2018-02-25T13:49:44.807Z,2.20
2018-02-25T13:52:12.322Z,1.90
2018-02-25T13:54:40.939Z,1.93
2018-02-25T13:57:08.458Z,2.30
2018-02-25T13:59:36.778Z,2.50
2018-02-25T14:02:04.734Z,1.90
2018-02-25T14:04:32.233Z,2.13
2018-02-25T14:07:00.524Z,2.70
2018-02-25T14:09:28.341Z,1.77
2018-02-25T14:11:55.920Z,1.70
2018-02-25T14:14:23.457Z,2.07
2018-02-25T14:16:51.325Z,2.07
2018-02-25T14:19:18.854Z,1.90
2018-02-25T14:21:47.144Z,2.30
2018-02-25T14:24:15.159Z,2.60
2018-02-25T14:26:42.681Z,3.13
2018-02-25T14:29:10.187Z,2.83
2018-02-25T14:31:38.114Z,2.57
2018-02-25T14:34:05.668Z,2.07
2018-02-25T14:36:33.252Z,2.30
2018-02-25T14:39:01.112Z,2.50
2018-02-25T14:41:28.888Z,2.20
2018-02-25T14:43:56.404Z,2.07
2018-02-25T14:46:24.280Z,2.93
2018-02-25T14:48:51.811Z,2.13
2018-02-25T14:51:20.185Z,2.60
2018-02-25T14:53:48.760Z,2.83
2018-02-25T14:56:17.053Z,2.80
2018-02-25T14:58:45.347Z,3.07
2018-02-25T15:01:13.336Z,3.03
2018-02-25T15:03:41.744Z,2.60
2018-02-25T15:06:09.259Z,3.20
2018-02-25T15:08:37.128Z,3.50
2018-02-25T15:11:04.664Z,3.63
2018-02-25T15:13:32.189Z,3.10
2018-02-25T15:16:00.103Z,3.23
2018-02-25T15:18:27.638Z,2.80
2018-02-25T15:20:56.101Z,2.53
2018-02-25T15:23:24.778Z,2.37
2018-02-25T15:25:52.304Z,2.37
2018-02-25T15:28:19.856Z,2.60
2018-02-25T15:30:47.672Z,2.17
2018-02-25T15:33:15.999Z,2.90
2018-02-25T15:35:44.490Z,2.90
2018-02-25T15:38:12.361Z,3.23
2018-02-25T15:40:39.951Z,3.20
2018-02-25T15:43:07.468Z,2.27
2018-02-25T15:45:35.335Z,2.70
2018-02-25T15:48:02.845Z,2.50
2018-02-25T15:50:31.148Z,2.33
2018-02-25T15:52:59.109Z,2.70
2018-02-25T15:55:26.793Z,2.63
2018-02-25T15:57:54.471Z,2.03
2018-02-25T16:00:22.727Z,2.60
2018-02-25T16:02:50.248Z,2.57
2018-02-25T16:05:18.612Z,2.33
2018-02-25T16:07:46.669Z,2.47
2018-02-25T16:10:14.223Z,8.37
2018-02-25T16:12:41.773Z,3.30
2018-02-25T16:15:09.645Z,2.53
2018-02-25T16:17:37.173Z,2.20
2018-02-25T16:20:05.028Z,2.53
2018-02-25T16:22:33.013Z,2.20
2018-02-25T16:25:02.515Z,2.13
2018-02-25T16:27:30.054Z,2.00
2018-02-25T16:29:57.876Z,2.03
2018-02-25T16:32:25.410Z,2.20
2018-02-25T16:34:52.928Z,2.00
2018-02-25T16:37:20.788Z,2.33
2018-02-25T16:39:49.074Z,2.10
2018-02-25T16:42:16.637Z,1.80
2018-02-25T16:44:44.464Z,2.10
2018-02-25T16:47:12.003Z,2.03
2018-02-25T16:49:39.544Z,1.70
2018-02-25T16:52:08.304Z,2.03
2018-02-25T16:54:35.883Z,2.03
2018-02-25T16:57:03.418Z,1.43
2018-02-25T16:59:31.291Z,1.60
2018-02-25T17:01:58.846Z,1.70
2018-02-25T17:04:26.372Z,1.73
2018-02-25T17:06:54.321Z,1.80
2018-02-25T17:09:21.954Z,3.37
2018-02-25T17:11:49.516Z,3.10
2018-02-25T17:14:17.348Z,2.00
2018-02-25T17:16:45.658Z,2.50
2018-02-25T17:19:13.315Z,4.10
2018-02-25T17:21:42.225Z,3.80
2018-02-25T17:24:09.791Z,3.80
2018-02-25T17:26:37.328Z,7.83
2018-02-25T17:29:05.206Z,4.60
2018-02-25T17:31:32.710Z,4.73
2018-02-25T17:34:01.006Z,5.90
2018-02-25T17:36:29.041Z,6.37
2018-02-25T17:38:56.557Z,2.50
2018-02-25T17:41:24.096Z,6.17
2018-02-25T17:43:51.997Z,5.00
2018-02-25T17:46:19.542Z,10.80
2018-02-25T17:48:47.121Z,7.00
2018-02-25T17:51:14.974Z,3.13
2018-02-25T17:53:42.559Z,3.13
2018-02-25T17:56:10.081Z,2.27
2018-02-25T17:58:37.943Z,2.47
2018-02-25T18:01:05.513Z,2.30
2018-02-25T18:03:33.038Z,2.30
2018-02-25T18:06:00.876Z,2.43
2018-02-25T18:08:28.593Z,2.47
2018-02-25T18:10:56.173Z,2.37
2018-02-25T18:13:24.151Z,2.30
2018-02-25T18:15:51.672Z,2.10
2018-02-25T18:18:19.241Z,2.30
2018-02-25T18:20:48.014Z,2.63
2018-02-25T18:23:15.550Z,2.90
2018-02-25T18:25:44.458Z,2.83
2018-02-25T18:28:12.379Z,3.33
2018-02-25T18:30:40.496Z,3.40
2018-02-25T18:33:08.037Z,3.10
2018-02-25T18:35:36.672Z,3.50
2018-02-25T18:38:04.250Z,2.73
2018-02-25T18:40:32.671Z,2.90
2018-02-25T18:43:00.588Z,3.07
2018-02-25T18:45:28.128Z,2.60
2018-02-25T18:47:55.773Z,3.33
2018-02-25T18:50:24.480Z,3.33
2018-02-25T18:52:52.051Z,4.00
2018-02-25T18:55:20.094Z,3.30
2018-02-25T18:57:48.025Z,3.70
2018-02-25T19:00:17.312Z,3.83
2018-02-25T19:02:46.789Z,3.90
2018-02-25T19:05:14.672Z,3.53
2018-02-25T19:07:42.817Z,3.77
2018-02-25T19:10:10.384Z,3.80
2018-02-25T19:12:39.028Z,3.90
2018-02-25T19:15:06.617Z,3.37
2018-02-25T19:17:34.194Z,3.20
2018-02-25T19:20:02.056Z,3.33
2018-02-25T19:22:29.604Z,3.10
2018-02-25T19:24:57.227Z,3.57
2018-02-25T19:27:25.079Z,3.60
2018-02-25T19:29:53.422Z,4.30
2018-02-25T19:32:20.978Z,5.47
2018-02-25T19:34:48.848Z,3.80
2018-02-25T19:37:22.157Z,3.60
2018-02-25T19:39:56.363Z,3.67
2018-02-25T19:42:24.010Z,3.80
2018-02-25T19:44:51.582Z,3.90
2018-02-25T19:47:19.573Z,3.43
2018-02-25T19:49:52.110Z,4.00
2018-02-25T19:52:19.994Z,3.97
2018-02-25T19:54:47.607Z,3.90
2018-02-25T19:57:15.204Z,5.97
2018-02-25T19:59:43.217Z,4.07
2018-02-25T20:02:11.614Z,3.80
2018-02-25T20:04:39.200Z,3.80
2018-02-25T20:20:03.003Z,3.60
2018-02-25T20:22:31.345Z,4.23
2018-02-25T20:24:58.996Z,3.77
2018-02-25T20:27:26.882Z,3.50
2018-02-25T20:29:54.499Z,3.00
2018-02-25T20:32:22.125Z,3.07
2018-02-25T20:34:50.753Z,3.37
2018-02-25T20:37:18.364Z,3.20
2018-02-25T20:39:46.496Z,3.23
2018-02-25T20:42:14.565Z,2.73
2018-02-25T20:44:42.549Z,2.90
2018-02-25T20:47:10.292Z,3.83
2018-02-25T20:49:38.226Z,4.63
2018-02-25T20:52:06.643Z,4.37
2018-02-25T20:54:34.185Z,5.13
2018-02-25T20:57:02.039Z,5.50
2018-02-25T20:59:29.648Z,5.20
2018-02-25T21:01:57.227Z,5.30
2018-02-25T21:04:25.199Z,3.47
2018-02-25T21:06:54.060Z,3.60
2018-02-25T21:09:21.984Z,3.00
2018-02-25T21:11:49.987Z,3.27
2018-02-25T21:14:17.571Z,3.50
2018-02-25T21:16:45.125Z,3.40
2018-02-25T21:19:13.070Z,3.20
2018-02-25T21:21:40.597Z,2.80
2018-02-25T21:24:08.133Z,2.87
2018-02-25T21:26:36.042Z,2.97
2018-02-25T21:29:04.065Z,2.93
2018-02-25T21:31:31.650Z,3.07
2018-02-25T21:34:00.270Z,3.17
2018-02-25T21:36:27.793Z,2.90
2018-02-25T21:38:56.095Z,2.80
2018-02-25T21:41:24.071Z,2.67
2018-02-25T21:43:51.627Z,3.27
2018-02-25T21:46:19.874Z,3.57
2018-02-25T21:48:47.771Z,3.37
2018-02-25T21:51:15.268Z,3.10
2018-02-25T21:53:42.783Z,3.00
2018-02-25T21:56:17.288Z,3.00
2018-02-25T21:58:50.681Z,3.40
2018-02-25T22:01:24.280Z,3.37
2018-02-25T22:03:57.559Z,3.97
2018-02-25T22:06:26.173Z,3.57
2018-02-25T22:08:53.675Z,3.40
2018-02-25T22:11:21.191Z,3.47
2018-02-25T22:13:49.051Z,3.17
2018-02-25T22:16:16.583Z,3.17
2018-02-25T22:18:44.976Z,3.27
2018-02-25T22:21:12.843Z,3.10
2018-02-25T22:23:40.334Z,3.20
2018-02-25T22:26:07.933Z,3.20
2018-02-25T22:28:35.735Z,3.17
2018-02-25T22:31:03.404Z,2.80
2018-02-25T22:33:30.962Z,2.70
2018-02-25T22:35:58.872Z,2.70
2018-02-25T22:38:26.379Z,2.90
2018-02-25T22:40:53.882Z,2.37
2018-02-25T22:43:21.806Z,2.50
2018-02-25T22:45:49.462Z,3.00
2018-02-25T22:48:16.980Z,2.57
2018-02-25T22:50:44.780Z,3.00
2018-02-25T22:53:12.443Z,3.20
2018-02-25T22:55:39.952Z,3.23
2018-02-25T22:58:07.868Z,2.93
2018-02-25T23:00:35.379Z,3.30
2018-02-25T23:03:02.900Z,2.73
2018-02-25T23:05:30.704Z,2.73
2018-02-25T23:07:58.212Z,2.53
2018-02-25T23:10:25.720Z,3.23
2018-02-25T23:12:53.522Z,2.80
2018-02-25T23:15:21.202Z,2.77
2018-02-25T23:17:48.848Z,2.77
2018-02-25T23:20:16.721Z,3.10
2018-02-25T23:22:44.252Z,2.63
2018-02-25T23:25:12.656Z,2.70
2018-02-25T23:27:40.519Z,3.17
2018-02-25T23:30:08.075Z,2.43
2018-02-25T23:32:35.606Z,2.93
2018-02-25T23:35:03.606Z,2.70
2018-02-25T23:37:31.111Z,2.57
2018-02-25T23:39:58.733Z,2.60
2018-02-25T23:42:26.732Z,2.87
2018-02-25T23:44:54.240Z,2.70
2018-02-25T23:47:22.504Z,2.50
2018-02-25T23:49:51.222Z,3.10
2018-02-25T23:52:18.732Z,2.80
2018-02-25T23:54:46.233Z,2.97
2018-02-25T23:57:14.083Z,2.80
2018-02-25T23:59:41.581Z,2.70
